Impacts TAF Board INFO
FOR SITUATIONAL AWARENESS. NOT TO BE USED FOR FLIGHT PLANNING PURPOSES.
IDs:

KBOS - Boston/Logan Intl, MA, US

Issued at 2324 UTC 27 May 2018
Updated at 0139 UTC 28 May 2018
Potential Impact None Slight Moderate High
Time<<29/02Z 29/03Z 29/04Z 29/05Z 29/06Z 29/07Z 29/08Z 29/09Z 29/10Z 29/11Z 29/12Z 29/13Z 29/14Z
Type PRVL PRVL PRVL PRVL
VIS >6 >6 >6 >6
CIG 250 250 250 250
Cover BKN BKN BKN BKN
FltCat VFR VFR VFR VFR
WX -- -- -- --
WDir 140 140 140 140
WSpd 5 5 5 5
WGst -- -- -- --

Raw TAF
KBOS 272324Z 2800/2906 06012G19KT P6SM -DZ OVC015
  FM280300 04008KT P6SM -DZ OVC008
  FM280600 03007KT 5SM -DZ BR OVC008
  FM281300 04006KT P6SM OVC008
  FM281700 08004KT P6SM BKN035
  FM282300 14005KT P6SM BKN250


METAR Board
Radar Display
Forecast Discussion

FOR SITUATIONAL AWARENESS. NOT TO BE USED FOR FLIGHT PLANNING PURPOSES.